sensor_id;sensor_type;location;lat;lon;timestamp;P1;durP1;ratioP1;P2;durP2;ratioP2
51286;SDS011;37364;46.974;18.916;2022-12-31T00:00:18;614.50;;;110.97;;
51286;SDS011;37364;46.974;18.916;2022-12-31T00:02:51;322.65;;;102.72;;
51286;SDS011;37364;46.974;18.916;2022-12-31T00:05:22;571.67;;;116.10;;
51286;SDS011;37364;46.974;18.916;2022-12-31T00:07:52;460.60;;;107.85;;
51286;SDS011;37364;46.974;18.916;2022-12-31T00:10:22;428.40;;;107.70;;
51286;SDS011;37364;46.974;18.916;2022-12-31T00:12:52;413.80;;;103.68;;
51286;SDS011;37364;46.974;18.916;2022-12-31T00:15:22;534.65;;;117.75;;
51286;SDS011;37364;46.974;18.916;2022-12-31T00:17:56;497.23;;;113.70;;
51286;SDS011;37364;46.974;18.916;2022-12-31T00:20:27;639.75;;;112.40;;
51286;SDS011;37364;46.974;18.916;2022-12-31T00:22:57;561.55;;;107.38;;
51286;SDS011;37364;46.974;18.916;2022-12-31T00:25:27;516.28;;;103.93;;
51286;SDS011;37364;46.974;18.916;2022-12-31T00:27:57;753.25;;;123.55;;
51286;SDS011;37364;46.974;18.916;2022-12-31T00:30:27;434.17;;;102.13;;
51286;SDS011;37364;46.974;18.916;2022-12-31T00:33:00;524.22;;;111.65;;
51286;SDS011;37364;46.974;18.916;2022-12-31T00:35:31;340.77;;;100.90;;
51286;SDS011;37364;46.974;18.916;2022-12-31T00:38:02;354.25;;;101.85;;
51286;SDS011;37364;46.974;18.916;2022-12-31T00:40:32;296.85;;;94.72;;
51286;SDS011;37364;46.974;18.916;2022-12-31T00:43:02;444.88;;;104.15;;
51286;SDS011;37364;46.974;18.916;2022-12-31T00:45:32;423.38;;;101.50;;
51286;SDS011;37364;46.974;18.916;2022-12-31T00:48:06;275.80;;;92.65;;
51286;SDS011;37364;46.974;18.916;2022-12-31T00:50:37;445.58;;;101.22;;
51286;SDS011;37364;46.974;18.916;2022-12-31T00:53:07;276.92;;;92.00;;
51286;SDS011;37364;46.974;18.916;2022-12-31T00:55:37;366.48;;;92.68;;
51286;SDS011;37364;46.974;18.916;2022-12-31T00:58:07;313.17;;;96.45;;
51286;SDS011;37364;46.974;18.916;2022-12-31T01:00:38;266.23;;;92.43;;
51286;SDS011;37364;46.974;18.916;2022-12-31T01:03:12;387.23;;;98.82;;
51286;SDS011;37364;46.974;18.916;2022-12-31T01:05:42;309.60;;;99.87;;
51286;SDS011;37364;46.974;18.916;2022-12-31T01:08:12;430.45;;;96.85;;
51286;SDS011;37364;46.974;18.916;2022-12-31T01:10:46;319.10;;;92.60;;
51286;SDS011;37364;46.974;18.916;2022-12-31T01:13:29;350.42;;;95.65;;
51286;SDS011;37364;46.974;18.916;2022-12-31T01:16:05;321.15;;;93.90;;
51286;SDS011;37364;46.974;18.916;2022-12-31T01:18:38;237.60;;;93.63;;
51286;SDS011;37364;46.974;18.916;2022-12-31T01:21:09;246.00;;;93.72;;
51286;SDS011;37364;46.974;18.916;2022-12-31T01:23:41;214.93;;;92.97;;
51286;SDS011;37364;46.974;18.916;2022-12-31T01:26:12;275.70;;;98.13;;
51286;SDS011;37364;46.974;18.916;2022-12-31T01:28:44;222.90;;;94.13;;
51286;SDS011;37364;46.974;18.916;2022-12-31T01:31:16;216.57;;;96.30;;
51286;SDS011;37364;46.974;18.916;2022-12-31T01:33:51;244.77;;;98.37;;
51286;SDS011;37364;46.974;18.916;2022-12-31T01:36:22;230.43;;;98.38;;
51286;SDS011;37364;46.974;18.916;2022-12-31T01:38:54;228.60;;;99.47;;
51286;SDS011;37364;46.974;18.916;2022-12-31T01:41:26;236.98;;;102.82;;
51286;SDS011;37364;46.974;18.916;2022-12-31T01:43:59;227.95;;;103.82;;
51286;SDS011;37364;46.974;18.916;2022-12-31T01:46:32;236.13;;;101.75;;
51286;SDS011;37364;46.974;18.916;2022-12-31T01:49:10;220.00;;;99.50;;
51286;SDS011;37364;46.974;18.916;2022-12-31T01:51:50;243.13;;;100.38;;
51286;SDS011;37364;46.974;18.916;2022-12-31T01:54:25;253.90;;;103.35;;
51286;SDS011;37364;46.974;18.916;2022-12-31T01:56:58;226.20;;;101.95;;
51286;SDS011;37364;46.974;18.916;2022-12-31T01:59:29;220.10;;;102.10;;
51286;SDS011;37364;46.974;18.916;2022-12-31T02:02:01;215.57;;;99.55;;
51286;SDS011;37364;46.974;18.916;2022-12-31T02:04:36;224.60;;;99.65;;
51286;SDS011;37364;46.974;18.916;2022-12-31T02:07:06;232.38;;;102.57;;
51286;SDS011;37364;46.974;18.916;2022-12-31T02:09:38;244.50;;;104.10;;
51286;SDS011;37364;46.974;18.916;2022-12-31T02:12:10;227.32;;;100.70;;
51286;SDS011;37364;46.974;18.916;2022-12-31T02:14:41;238.68;;;104.32;;
51286;SDS011;37364;46.974;18.916;2022-12-31T02:17:15;232.65;;;103.13;;
51286;SDS011;37364;46.974;18.916;2022-12-31T02:20:00;237.27;;;100.70;;
51286;SDS011;37364;46.974;18.916;2022-12-31T02:22:53;235.52;;;104.30;;
51286;SDS011;37364;46.974;18.916;2022-12-31T02:25:44;233.65;;;102.68;;
51286;SDS011;37364;46.974;18.916;2022-12-31T02:28:36;218.05;;;100.45;;
51286;SDS011;37364;46.974;18.916;2022-12-31T02:31:28;252.77;;;103.57;;
51286;SDS011;37364;46.974;18.916;2022-12-31T02:34:05;269.88;;;105.43;;
51286;SDS011;37364;46.974;18.916;2022-12-31T02:36:39;259.23;;;106.22;;
51286;SDS011;37364;46.974;18.916;2022-12-31T02:39:13;273.10;;;108.15;;
51286;SDS011;37364;46.974;18.916;2022-12-31T02:41:46;257.73;;;107.22;;
51286;SDS011;37364;46.974;18.916;2022-12-31T02:44:20;331.92;;;112.78;;
51286;SDS011;37364;46.974;18.916;2022-12-31T02:52:23;739.03;;;118.20;;
51286;SDS011;37364;46.974;18.916;2022-12-31T02:55:02;351.23;;;100.03;;
51286;SDS011;37364;46.974;18.916;2022-12-31T02:57:40;785.47;;;126.30;;
51286;SDS011;37364;46.974;18.916;2022-12-31T03:00:16;470.40;;;100.47;;
51286;SDS011;37364;46.974;18.916;2022-12-31T03:03:02;507.97;;;98.50;;
51286;SDS011;37364;46.974;18.916;2022-12-31T03:05:36;855.72;;;112.35;;
51286;SDS011;37364;46.974;18.916;2022-12-31T03:08:09;647.45;;;102.22;;
51286;SDS011;37364;46.974;18.916;2022-12-31T03:10:39;805.72;;;104.57;;
51286;SDS011;37364;46.974;18.916;2022-12-31T03:13:10;1197.95;;;118.10;;
51286;SDS011;37364;46.974;18.916;2022-12-31T03:15:37;1239.97;;;114.47;;
51286;SDS011;37364;46.974;18.916;2022-12-31T03:18:12;1446.25;;;125.28;;
51286;SDS011;37364;46.974;18.916;2022-12-31T03:20:45;1355.40;;;125.65;;
51286;SDS011;37364;46.974;18.916;2022-12-31T03:23:38;1102.15;;;124.60;;
51286;SDS011;37364;46.974;18.916;2022-12-31T03:26:15;1259.25;;;131.27;;
51286;SDS011;37364;46.974;18.916;2022-12-31T03:28:43;908.55;;;109.55;;
51286;SDS011;37364;46.974;18.916;2022-12-31T03:31:13;968.75;;;114.03;;
51286;SDS011;37364;46.974;18.916;2022-12-31T03:33:47;1259.13;;;138.35;;
51286;SDS011;37364;46.974;18.916;2022-12-31T03:36:17;1041.15;;;117.78;;
51286;SDS011;37364;46.974;18.916;2022-12-31T03:38:48;1124.88;;;122.95;;
51286;SDS011;37364;46.974;18.916;2022-12-31T03:41:18;884.60;;;119.45;;
51286;SDS011;37364;46.974;18.916;2022-12-31T03:43:49;727.20;;;107.78;;
51286;SDS011;37364;46.974;18.916;2022-12-31T03:46:19;857.65;;;106.85;;
51286;SDS011;37364;46.974;18.916;2022-12-31T03:48:52;677.30;;;104.63;;
51286;SDS011;37364;46.974;18.916;2022-12-31T03:51:22;1019.60;;;127.50;;
51286;SDS011;37364;46.974;18.916;2022-12-31T03:53:52;1197.82;;;115.00;;
51286;SDS011;37364;46.974;18.916;2022-12-31T03:56:23;1511.80;;;142.90;;
51286;SDS011;37364;46.974;18.916;2022-12-31T03:58:53;975.90;;;112.10;;
51286;SDS011;37364;46.974;18.916;2022-12-31T04:01:23;783.53;;;100.68;;
51286;SDS011;37364;46.974;18.916;2022-12-31T04:03:56;1167.80;;;126.88;;
51286;SDS011;37364;46.974;18.916;2022-12-31T04:06:26;708.23;;;101.70;;
51286;SDS011;37364;46.974;18.916;2022-12-31T04:08:56;1097.55;;;123.00;;
51286;SDS011;37364;46.974;18.916;2022-12-31T04:11:27;624.08;;;94.93;;
51286;SDS011;37364;46.974;18.916;2022-12-31T04:13:57;674.55;;;94.05;;
51286;SDS011;37364;46.974;18.916;2022-12-31T04:16:27;652.25;;;95.50;;
51286;SDS011;37364;46.974;18.916;2022-12-31T04:19:00;684.00;;;100.38;;
51286;SDS011;37364;46.974;18.916;2022-12-31T04:21:31;861.67;;;127.87;;
51286;SDS011;37364;46.974;18.916;2022-12-31T04:24:01;1167.18;;;137.52;;
51286;SDS011;37364;46.974;18.916;2022-12-31T04:26:32;538.17;;;100.65;;
51286;SDS011;37364;46.974;18.916;2022-12-31T04:29:03;820.17;;;113.97;;
51286;SDS011;37364;46.974;18.916;2022-12-31T04:31:34;594.67;;;109.50;;
51286;SDS011;37364;46.974;18.916;2022-12-31T04:34:07;562.47;;;107.15;;
51286;SDS011;37364;46.974;18.916;2022-12-31T04:36:37;621.72;;;113.10;;
51286;SDS011;37364;46.974;18.916;2022-12-31T04:39:08;509.55;;;101.68;;
51286;SDS011;37364;46.974;18.916;2022-12-31T04:41:38;749.53;;;142.15;;
51286;SDS011;37364;46.974;18.916;2022-12-31T04:44:08;547.33;;;102.20;;
51286;SDS011;37364;46.974;18.916;2022-12-31T04:46:38;534.92;;;97.25;;
51286;SDS011;37364;46.974;18.916;2022-12-31T04:49:11;452.70;;;90.95;;
51286;SDS011;37364;46.974;18.916;2022-12-31T04:51:41;325.55;;;88.40;;
51286;SDS011;37364;46.974;18.916;2022-12-31T04:54:12;494.52;;;99.68;;
51286;SDS011;37364;46.974;18.916;2022-12-31T04:56:42;448.90;;;94.55;;
51286;SDS011;37364;46.974;18.916;2022-12-31T04:59:13;417.90;;;94.90;;
51286;SDS011;37364;46.974;18.916;2022-12-31T05:01:43;307.55;;;96.40;;
51286;SDS011;37364;46.974;18.916;2022-12-31T05:04:17;279.95;;;89.43;;
51286;SDS011;37364;46.974;18.916;2022-12-31T05:06:47;199.35;;;81.90;;
51286;SDS011;37364;46.974;18.916;2022-12-31T05:09:17;149.63;;;79.30;;
51286;SDS011;37364;46.974;18.916;2022-12-31T05:11:49;241.95;;;77.78;;
51286;SDS011;37364;46.974;18.916;2022-12-31T05:14:19;221.98;;;78.38;;
51286;SDS011;37364;46.974;18.916;2022-12-31T05:16:50;191.27;;;75.60;;
51286;SDS011;37364;46.974;18.916;2022-12-31T05:19:23;325.50;;;77.28;;
51286;SDS011;37364;46.974;18.916;2022-12-31T05:21:54;391.92;;;82.57;;
51286;SDS011;37364;46.974;18.916;2022-12-31T05:24:36;348.90;;;81.30;;
51286;SDS011;37364;46.974;18.916;2022-12-31T05:27:06;357.20;;;82.93;;
51286;SDS011;37364;46.974;18.916;2022-12-31T05:29:36;481.23;;;96.85;;
51286;SDS011;37364;46.974;18.916;2022-12-31T05:32:07;404.60;;;94.07;;
51286;SDS011;37364;46.974;18.916;2022-12-31T05:34:40;311.17;;;86.15;;
51286;SDS011;37364;46.974;18.916;2022-12-31T05:37:10;228.23;;;84.70;;
51286;SDS011;37364;46.974;18.916;2022-12-31T05:39:40;150.18;;;73.80;;
51286;SDS011;37364;46.974;18.916;2022-12-31T05:42:11;148.57;;;71.95;;
51286;SDS011;37364;46.974;18.916;2022-12-31T05:44:41;156.63;;;73.18;;
51286;SDS011;37364;46.974;18.916;2022-12-31T05:47:11;432.90;;;94.03;;
51286;SDS011;37364;46.974;18.916;2022-12-31T05:49:44;196.35;;;72.93;;
51286;SDS011;37364;46.974;18.916;2022-12-31T05:52:15;250.43;;;79.63;;
51286;SDS011;37364;46.974;18.916;2022-12-31T05:54:45;280.27;;;77.82;;
51286;SDS011;37364;46.974;18.916;2022-12-31T05:57:15;189.07;;;69.88;;
51286;SDS011;37364;46.974;18.916;2022-12-31T05:59:46;216.05;;;78.20;;
51286;SDS011;37364;46.974;18.916;2022-12-31T06:02:19;143.10;;;72.53;;
51286;SDS011;37364;46.974;18.916;2022-12-31T06:04:52;155.43;;;73.05;;
51286;SDS011;37364;46.974;18.916;2022-12-31T06:07:22;234.32;;;72.40;;
51286;SDS011;37364;46.974;18.916;2022-12-31T06:09:53;261.17;;;74.75;;
51286;SDS011;37364;46.974;18.916;2022-12-31T06:12:23;260.85;;;75.55;;
51286;SDS011;37364;46.974;18.916;2022-12-31T06:14:53;250.18;;;72.65;;
51286;SDS011;37364;46.974;18.916;2022-12-31T06:17:24;307.20;;;79.80;;
51286;SDS011;37364;46.974;18.916;2022-12-31T06:19:57;283.95;;;71.85;;
51286;SDS011;37364;46.974;18.916;2022-12-31T06:22:36;213.05;;;73.20;;
51286;SDS011;37364;46.974;18.916;2022-12-31T06:25:06;277.63;;;68.25;;
51286;SDS011;37364;46.974;18.916;2022-12-31T06:27:37;233.10;;;67.72;;
51286;SDS011;37364;46.974;18.916;2022-12-31T06:30:08;356.90;;;76.93;;
51286;SDS011;37364;46.974;18.916;2022-12-31T06:32:40;368.45;;;90.10;;
51286;SDS011;37364;46.974;18.916;2022-12-31T06:35:13;378.35;;;88.32;;
51286;SDS011;37364;46.974;18.916;2022-12-31T06:37:43;382.85;;;79.53;;
51286;SDS011;37364;46.974;18.916;2022-12-31T06:40:13;356.73;;;84.32;;
51286;SDS011;37364;46.974;18.916;2022-12-31T06:42:44;458.92;;;88.60;;
51286;SDS011;37364;46.974;18.916;2022-12-31T06:45:17;227.55;;;75.40;;
51286;SDS011;37364;46.974;18.916;2022-12-31T06:47:48;421.83;;;85.72;;
51286;SDS011;37364;46.974;18.916;2022-12-31T06:50:21;438.95;;;86.20;;
51286;SDS011;37364;46.974;18.916;2022-12-31T06:52:53;381.27;;;86.55;;
51286;SDS011;37364;46.974;18.916;2022-12-31T06:55:24;431.90;;;89.43;;
51286;SDS011;37364;46.974;18.916;2022-12-31T06:57:55;477.70;;;90.90;;
51286;SDS011;37364;46.974;18.916;2022-12-31T07:00:26;398.92;;;87.35;;
51286;SDS011;37364;46.974;18.916;2022-12-31T07:05:55;436.55;;;83.38;;
51286;SDS011;37364;46.974;18.916;2022-12-31T07:08:33;375.48;;;75.05;;
51286;SDS011;37364;46.974;18.916;2022-12-31T07:11:13;302.50;;;73.85;;
51286;SDS011;37364;46.974;18.916;2022-12-31T07:13:54;539.45;;;88.00;;
51286;SDS011;37364;46.974;18.916;2022-12-31T07:16:40;321.80;;;77.88;;
51286;SDS011;37364;46.974;18.916;2022-12-31T07:19:25;297.30;;;79.10;;
51286;SDS011;37364;46.974;18.916;2022-12-31T07:22:07;268.50;;;73.57;;
51286;SDS011;37364;46.974;18.916;2022-12-31T07:24:42;230.80;;;67.43;;
51286;SDS011;37364;46.974;18.916;2022-12-31T07:27:17;312.75;;;74.60;;
51286;SDS011;37364;46.974;18.916;2022-12-31T07:30:02;414.77;;;82.90;;
51286;SDS011;37364;46.974;18.916;2022-12-31T07:32:52;204.98;;;68.70;;
51286;SDS011;37364;46.974;18.916;2022-12-31T07:35:42;384.30;;;78.53;;
51286;SDS011;37364;46.974;18.916;2022-12-31T07:38:23;233.73;;;67.53;;
51286;SDS011;37364;46.974;18.916;2022-12-31T07:41:02;255.82;;;73.45;;
51286;SDS011;37364;46.974;18.916;2022-12-31T07:43:41;406.38;;;100.90;;
51286;SDS011;37364;46.974;18.916;2022-12-31T07:46:21;273.38;;;90.40;;
51286;SDS011;37364;46.974;18.916;2022-12-31T07:49:02;296.73;;;91.03;;
51286;SDS011;37364;46.974;18.916;2022-12-31T07:51:33;246.68;;;88.63;;
51286;SDS011;37364;46.974;18.916;2022-12-31T07:54:06;238.63;;;86.53;;
51286;SDS011;37364;46.974;18.916;2022-12-31T07:56:40;208.82;;;82.05;;
51286;SDS011;37364;46.974;18.916;2022-12-31T07:59:15;188.85;;;76.43;;
51286;SDS011;37364;46.974;18.916;2022-12-31T08:01:57;195.27;;;81.97;;
51286;SDS011;37364;46.974;18.916;2022-12-31T08:04:35;185.65;;;79.32;;
51286;SDS011;37364;46.974;18.916;2022-12-31T08:07:14;258.40;;;101.28;;
51286;SDS011;37364;46.974;18.916;2022-12-31T08:09:56;222.75;;;95.00;;
51286;SDS011;37364;46.974;18.916;2022-12-31T08:12:42;233.75;;;96.90;;
51286;SDS011;37364;46.974;18.916;2022-12-31T08:15:16;309.98;;;115.22;;
51286;SDS011;37364;46.974;18.916;2022-12-31T08:17:56;249.40;;;106.35;;
51286;SDS011;37364;46.974;18.916;2022-12-31T08:20:27;217.50;;;93.68;;
51286;SDS011;37364;46.974;18.916;2022-12-31T08:23:03;251.23;;;105.10;;
51286;SDS011;37364;46.974;18.916;2022-12-31T08:25:58;260.55;;;107.13;;
51286;SDS011;37364;46.974;18.916;2022-12-31T08:28:42;233.57;;;101.43;;
51286;SDS011;37364;46.974;18.916;2022-12-31T08:31:22;265.98;;;107.97;;
51286;SDS011;37364;46.974;18.916;2022-12-31T08:34:00;236.10;;;106.30;;
51286;SDS011;37364;46.974;18.916;2022-12-31T08:36:43;260.83;;;110.32;;
51286;SDS011;37364;46.974;18.916;2022-12-31T08:39:20;254.48;;;108.22;;
51286;SDS011;37364;46.974;18.916;2022-12-31T08:42:03;274.93;;;120.87;;
51286;SDS011;37364;46.974;18.916;2022-12-31T08:44:43;229.88;;;105.05;;
51286;SDS011;37364;46.974;18.916;2022-12-31T08:47:23;242.50;;;105.28;;
51286;SDS011;37364;46.974;18.916;2022-12-31T08:50:04;247.23;;;109.05;;
51286;SDS011;37364;46.974;18.916;2022-12-31T08:52:41;244.15;;;109.88;;
51286;SDS011;37364;46.974;18.916;2022-12-31T08:55:13;257.65;;;119.25;;
51286;SDS011;37364;46.974;18.916;2022-12-31T08:57:48;265.38;;;117.50;;
51286;SDS011;37364;46.974;18.916;2022-12-31T09:00:27;226.65;;;107.05;;
51286;SDS011;37364;46.974;18.916;2022-12-31T09:03:06;237.00;;;107.70;;
51286;SDS011;37364;46.974;18.916;2022-12-31T09:05:51;224.57;;;106.57;;
51286;SDS011;37364;46.974;18.916;2022-12-31T09:08:30;238.90;;;106.72;;
51286;SDS011;37364;46.974;18.916;2022-12-31T09:11:09;225.55;;;105.00;;
51286;SDS011;37364;46.974;18.916;2022-12-31T09:17:01;223.05;;;109.53;;
51286;SDS011;37364;46.974;18.916;2022-12-31T09:19:39;231.07;;;111.38;;
51286;SDS011;37364;46.974;18.916;2022-12-31T09:22:10;244.95;;;116.28;;
51286;SDS011;37364;46.974;18.916;2022-12-31T09:24:41;250.93;;;122.03;;
51286;SDS011;37364;46.974;18.916;2022-12-31T09:27:12;239.82;;;121.00;;
51286;SDS011;37364;46.974;18.916;2022-12-31T09:29:55;243.90;;;123.10;;
51286;SDS011;37364;46.974;18.916;2022-12-31T09:32:36;217.77;;;114.78;;
51286;SDS011;37364;46.974;18.916;2022-12-31T09:35:32;172.25;;;92.20;;
51286;SDS011;37364;46.974;18.916;2022-12-31T09:38:09;129.52;;;75.53;;
51286;SDS011;37364;46.974;18.916;2022-12-31T09:40:49;122.68;;;70.88;;
51286;SDS011;37364;46.974;18.916;2022-12-31T09:46:42;100.50;;;62.70;;
51286;SDS011;37364;46.974;18.916;2022-12-31T09:49:50;90.53;;;55.40;;
51286;SDS011;37364;46.974;18.916;2022-12-31T09:52:45;85.80;;;53.83;;
51286;SDS011;37364;46.974;18.916;2022-12-31T09:55:30;74.07;;;51.85;;
51286;SDS011;37364;46.974;18.916;2022-12-31T09:58:10;63.90;;;45.72;;
51286;SDS011;37364;46.974;18.916;2022-12-31T10:00:55;78.07;;;48.80;;
51286;SDS011;37364;46.974;18.916;2022-12-31T10:03:35;57.38;;;41.97;;
51286;SDS011;37364;46.974;18.916;2022-12-31T10:06:24;51.42;;;39.53;;
51286;SDS011;37364;46.974;18.916;2022-12-31T10:09:04;52.50;;;39.28;;
51286;SDS011;37364;46.974;18.916;2022-12-31T10:11:49;53.38;;;38.55;;
51286;SDS011;37364;46.974;18.916;2022-12-31T10:14:36;50.92;;;39.28;;
51286;SDS011;37364;46.974;18.916;2022-12-31T10:17:28;47.67;;;38.13;;
51286;SDS011;37364;46.974;18.916;2022-12-31T10:20:15;55.90;;;39.95;;
51286;SDS011;37364;46.974;18.916;2022-12-31T10:23:23;48.83;;;36.22;;
51286;SDS011;37364;46.974;18.916;2022-12-31T10:26:06;48.30;;;38.92;;
51286;SDS011;37364;46.974;18.916;2022-12-31T10:28:58;46.65;;;37.75;;
51286;SDS011;37364;46.974;18.916;2022-12-31T10:31:38;53.08;;;37.75;;
51286;SDS011;37364;46.974;18.916;2022-12-31T10:34:15;45.88;;;36.10;;
51286;SDS011;37364;46.974;18.916;2022-12-31T10:36:52;45.22;;;37.88;;
51286;SDS011;37364;46.974;18.916;2022-12-31T10:39:31;46.95;;;36.80;;
51286;SDS011;37364;46.974;18.916;2022-12-31T10:42:24;45.55;;;35.72;;
51286;SDS011;37364;46.974;18.916;2022-12-31T10:45:29;43.55;;;33.67;;
51286;SDS011;37364;46.974;18.916;2022-12-31T10:54:17;49.05;;;33.72;;
51286;SDS011;37364;46.974;18.916;2022-12-31T11:00:33;43.83;;;33.80;;
51286;SDS011;37364;46.974;18.916;2022-12-31T11:03:20;44.50;;;33.22;;
51286;SDS011;37364;46.974;18.916;2022-12-31T11:09:40;46.70;;;35.30;;
51286;SDS011;37364;46.974;18.916;2022-12-31T11:18:50;63.80;;;39.47;;
51286;SDS011;37364;46.974;18.916;2022-12-31T11:21:31;45.28;;;35.92;;
51286;SDS011;37364;46.974;18.916;2022-12-31T11:24:20;45.08;;;35.17;;
51286;SDS011;37364;46.974;18.916;2022-12-31T11:27:02;40.20;;;34.40;;
51286;SDS011;37364;46.974;18.916;2022-12-31T11:29:47;50.53;;;33.30;;
51286;SDS011;37364;46.974;18.916;2022-12-31T11:32:36;39.33;;;30.73;;
51286;SDS011;37364;46.974;18.916;2022-12-31T11:35:21;37.63;;;32.47;;
51286;SDS011;37364;46.974;18.916;2022-12-31T11:37:57;48.60;;;34.85;;
51286;SDS011;37364;46.974;18.916;2022-12-31T11:40:39;45.63;;;34.17;;
51286;SDS011;37364;46.974;18.916;2022-12-31T11:43:21;45.83;;;34.22;;
51286;SDS011;37364;46.974;18.916;2022-12-31T11:46:00;60.38;;;36.45;;
51286;SDS011;37364;46.974;18.916;2022-12-31T11:48:45;43.97;;;36.22;;
51286;SDS011;37364;46.974;18.916;2022-12-31T11:51:32;40.13;;;33.20;;
51286;SDS011;37364;46.974;18.916;2022-12-31T11:54:32;40.55;;;31.98;;
51286;SDS011;37364;46.974;18.916;2022-12-31T11:57:17;39.40;;;30.40;;
51286;SDS011;37364;46.974;18.916;2022-12-31T11:59:55;43.53;;;29.02;;
51286;SDS011;37364;46.974;18.916;2022-12-31T12:02:39;41.25;;;28.33;;
51286;SDS011;37364;46.974;18.916;2022-12-31T12:05:16;38.80;;;28.15;;
51286;SDS011;37364;46.974;18.916;2022-12-31T12:07:48;36.40;;;27.60;;
51286;SDS011;37364;46.974;18.916;2022-12-31T12:10:24;36.40;;;24.88;;
51286;SDS011;37364;46.974;18.916;2022-12-31T12:13:09;39.00;;;28.23;;
51286;SDS011;37364;46.974;18.916;2022-12-31T12:15:42;38.45;;;29.08;;
51286;SDS011;37364;46.974;18.916;2022-12-31T12:18:26;37.95;;;29.27;;
51286;SDS011;37364;46.974;18.916;2022-12-31T12:21:08;42.67;;;29.70;;
51286;SDS011;37364;46.974;18.916;2022-12-31T12:23:39;42.95;;;29.83;;
51286;SDS011;37364;46.974;18.916;2022-12-31T12:26:24;38.67;;;27.92;;
51286;SDS011;37364;46.974;18.916;2022-12-31T12:28:58;31.83;;;26.60;;
51286;SDS011;37364;46.974;18.916;2022-12-31T12:31:29;39.85;;;28.60;;
51286;SDS011;37364;46.974;18.916;2022-12-31T12:33:59;40.72;;;27.13;;
51286;SDS011;37364;46.974;18.916;2022-12-31T12:36:32;40.22;;;26.25;;
51286;SDS011;37364;46.974;18.916;2022-12-31T12:39:04;40.33;;;24.48;;
51286;SDS011;37364;46.974;18.916;2022-12-31T12:41:34;40.60;;;25.88;;
51286;SDS011;37364;46.974;18.916;2022-12-31T12:44:12;38.17;;;27.67;;
51286;SDS011;37364;46.974;18.916;2022-12-31T12:46:45;32.85;;;26.25;;
51286;SDS011;37364;46.974;18.916;2022-12-31T12:49:18;39.13;;;26.08;;
51286;SDS011;37364;46.974;18.916;2022-12-31T12:52:01;34.90;;;25.98;;
51286;SDS011;37364;46.974;18.916;2022-12-31T12:54:42;39.65;;;25.70;;
51286;SDS011;37364;46.974;18.916;2022-12-31T12:57:28;39.88;;;27.70;;
51286;SDS011;37364;46.974;18.916;2022-12-31T13:00:04;36.30;;;26.90;;
51286;SDS011;37364;46.974;18.916;2022-12-31T13:02:46;39.35;;;25.73;;
51286;SDS011;37364;46.974;18.916;2022-12-31T13:05:37;31.48;;;23.70;;
51286;SDS011;37364;46.974;18.916;2022-12-31T13:08:23;41.95;;;24.45;;
51286;SDS011;37364;46.974;18.916;2022-12-31T13:11:09;32.30;;;23.40;;
51286;SDS011;37364;46.974;18.916;2022-12-31T13:13:54;36.35;;;24.33;;
51286;SDS011;37364;46.974;18.916;2022-12-31T13:16:31;26.67;;;21.20;;
51286;SDS011;37364;46.974;18.916;2022-12-31T13:19:10;30.40;;;22.55;;
51286;SDS011;37364;46.974;18.916;2022-12-31T13:21:48;32.05;;;23.50;;
51286;SDS011;37364;46.974;18.916;2022-12-31T13:24:28;35.80;;;24.23;;
51286;SDS011;37364;46.974;18.916;2022-12-31T13:27:12;36.90;;;24.80;;
51286;SDS011;37364;46.974;18.916;2022-12-31T13:29:49;38.75;;;25.45;;
51286;SDS011;37364;46.974;18.916;2022-12-31T13:32:26;34.30;;;25.67;;
51286;SDS011;37364;46.974;18.916;2022-12-31T13:35:11;38.20;;;29.15;;
51286;SDS011;37364;46.974;18.916;2022-12-31T13:37:48;39.42;;;26.90;;
51286;SDS011;37364;46.974;18.916;2022-12-31T13:40:34;36.78;;;25.17;;
51286;SDS011;37364;46.974;18.916;2022-12-31T13:43:18;36.10;;;22.85;;
51286;SDS011;37364;46.974;18.916;2022-12-31T13:46:00;29.00;;;20.40;;
51286;SDS011;37364;46.974;18.916;2022-12-31T13:48:39;30.42;;;18.00;;
51286;SDS011;37364;46.974;18.916;2022-12-31T13:51:19;26.83;;;17.67;;
51286;SDS011;37364;46.974;18.916;2022-12-31T13:53:56;29.15;;;19.55;;
51286;SDS011;37364;46.974;18.916;2022-12-31T13:56:34;29.08;;;20.05;;
51286;SDS011;37364;46.974;18.916;2022-12-31T13:59:10;29.80;;;19.80;;
51286;SDS011;37364;46.974;18.916;2022-12-31T14:01:46;35.53;;;20.15;;
51286;SDS011;37364;46.974;18.916;2022-12-31T14:04:23;27.63;;;20.27;;
51286;SDS011;37364;46.974;18.916;2022-12-31T14:06:59;33.15;;;21.20;;
51286;SDS011;37364;46.974;18.916;2022-12-31T14:09:35;31.48;;;22.15;;
51286;SDS011;37364;46.974;18.916;2022-12-31T14:12:15;27.63;;;22.08;;
51286;SDS011;37364;46.974;18.916;2022-12-31T14:14:51;33.42;;;23.10;;
51286;SDS011;37364;46.974;18.916;2022-12-31T14:17:32;39.10;;;23.23;;
51286;SDS011;37364;46.974;18.916;2022-12-31T14:20:14;31.17;;;22.67;;
51286;SDS011;37364;46.974;18.916;2022-12-31T14:22:54;32.22;;;20.45;;
51286;SDS011;37364;46.974;18.916;2022-12-31T14:25:33;27.58;;;19.25;;
51286;SDS011;37364;46.974;18.916;2022-12-31T14:28:10;23.30;;;16.40;;
51286;SDS011;37364;46.974;18.916;2022-12-31T14:30:46;26.13;;;16.45;;
51286;SDS011;37364;46.974;18.916;2022-12-31T14:33:24;20.90;;;16.08;;
51286;SDS011;37364;46.974;18.916;2022-12-31T14:36:19;21.60;;;14.88;;
51286;SDS011;37364;46.974;18.916;2022-12-31T14:39:07;23.42;;;14.57;;
51286;SDS011;37364;46.974;18.916;2022-12-31T14:44:32;18.35;;;11.13;;
51286;SDS011;37364;46.974;18.916;2022-12-31T14:47:20;19.48;;;9.68;;
51286;SDS011;37364;46.974;18.916;2022-12-31T14:50:02;19.00;;;9.57;;
51286;SDS011;37364;46.974;18.916;2022-12-31T14:52:47;14.25;;;8.25;;
51286;SDS011;37364;46.974;18.916;2022-12-31T14:55:20;13.63;;;8.47;;
51286;SDS011;37364;46.974;18.916;2022-12-31T14:57:54;19.00;;;8.70;;
51286;SDS011;37364;46.974;18.916;2022-12-31T15:00:53;16.20;;;8.60;;
51286;SDS011;37364;46.974;18.916;2022-12-31T15:03:31;14.73;;;8.15;;
51286;SDS011;37364;46.974;18.916;2022-12-31T15:06:14;16.63;;;9.15;;
51286;SDS011;37364;46.974;18.916;2022-12-31T15:09:05;17.45;;;9.50;;
51286;SDS011;37364;46.974;18.916;2022-12-31T15:11:50;18.75;;;9.05;;
51286;SDS011;37364;46.974;18.916;2022-12-31T15:17:43;12.32;;;8.18;;
51286;SDS011;37364;46.974;18.916;2022-12-31T15:23:19;18.80;;;10.20;;
51286;SDS011;37364;46.974;18.916;2022-12-31T15:25:53;15.05;;;9.65;;
51286;SDS011;37364;46.974;18.916;2022-12-31T15:28:30;18.70;;;8.93;;
51286;SDS011;37364;46.974;18.916;2022-12-31T15:31:06;13.85;;;9.43;;
51286;SDS011;37364;46.974;18.916;2022-12-31T15:33:56;14.50;;;9.70;;